Archival Weather

Aeroparque Jorge Newbery

Buenos Aires, Argentina (SABE)

Report from: Sunday, March 19, 2023 11:00 PM -03
Current time: Friday, June 21, 2024 9:57 PM -03

Current weather – Weather history – Daily summaries
Weather forecast

Temperature25.0°C (77.0°F)
Dew point19.0°C (66.2°F)
Winds 8 kts (4.1 m/s, 9.2 mph) Vrb
Winds variableWinds variable from East-Southeast (120°) to South (190°)
Visibility6.2 mi. (10 km)
Clouds Few clouds 2,500 ft. (762 m)
Ceiling: Broken clouds 3,700 ft. (1,128 m)
Few clouds with cumulonimbus 5,000 ft. (1,524 m)
Altimeter29.88 in.Hg (1012 mB)
Relative humidity69 %
Density altitude1,499 ft. (457 m)
Remarks No significant changes expected in the next two hours
Cumulonimbus clouds observed southwest
Flight conditions Visual Meteorological Conditions
Raw dataSABE 200200Z 15008KT 120V190 9999 FEW025 BKN037 FEW050CB 25/19 Q1012 NOSIG RMK CB OBS TO SW PP000
An error has occurred. This application may no longer respond until reloaded. Reload 🗙